sensor_id;sensor_type;location;lat;lon;timestamp;P1;durP1;ratioP1;P2;durP2;ratioP2
22211;SDS011;11275;52.488;13.462;2023-07-30T00:02:19;4.20;;;3.80;;
22211;SDS011;11275;52.488;13.462;2023-07-30T00:04:45;4.07;;;3.03;;
22211;SDS011;11275;52.488;13.462;2023-07-30T00:07:11;4.15;;;3.80;;
22211;SDS011;11275;52.488;13.462;2023-07-30T00:09:37;3.28;;;2.97;;
22211;SDS011;11275;52.488;13.462;2023-07-30T00:12:04;3.60;;;3.22;;
22211;SDS011;11275;52.488;13.462;2023-07-30T00:14:31;3.00;;;2.80;;
22211;SDS011;11275;52.488;13.462;2023-07-30T00:16:56;4.30;;;3.15;;
22211;SDS011;11275;52.488;13.462;2023-07-30T00:19:22;3.85;;;3.40;;
22211;SDS011;11275;52.488;13.462;2023-07-30T00:21:48;4.38;;;3.20;;
22211;SDS011;11275;52.488;13.462;2023-07-30T00:24:13;4.90;;;3.00;;
22211;SDS011;11275;52.488;13.462;2023-07-30T00:26:39;3.38;;;3.08;;
22211;SDS011;11275;52.488;13.462;2023-07-30T00:29:04;5.30;;;3.00;;
22211;SDS011;11275;52.488;13.462;2023-07-30T00:31:30;3.88;;;3.45;;
22211;SDS011;11275;52.488;13.462;2023-07-30T00:33:56;4.50;;;3.60;;
22211;SDS011;11275;52.488;13.462;2023-07-30T00:36:24;5.20;;;4.68;;
22211;SDS011;11275;52.488;13.462;2023-07-30T00:38:50;5.88;;;4.68;;
22211;SDS011;11275;52.488;13.462;2023-07-30T00:41:15;3.70;;;3.10;;
22211;SDS011;11275;52.488;13.462;2023-07-30T00:43:41;5.75;;;4.35;;
22211;SDS011;11275;52.488;13.462;2023-07-30T00:46:06;3.42;;;3.15;;
22211;SDS011;11275;52.488;13.462;2023-07-30T00:48:33;3.42;;;3.10;;
22211;SDS011;11275;52.488;13.462;2023-07-30T00:50:58;3.65;;;2.63;;
22211;SDS011;11275;52.488;13.462;2023-07-30T00:53:25;3.70;;;3.13;;
22211;SDS011;11275;52.488;13.462;2023-07-30T00:55:52;5.53;;;4.88;;
22211;SDS011;11275;52.488;13.462;2023-07-30T00:58:19;3.28;;;2.88;;
22211;SDS011;11275;52.488;13.462;2023-07-30T01:00:47;3.70;;;3.40;;
22211;SDS011;11275;52.488;13.462;2023-07-30T01:03:12;4.63;;;3.10;;
22211;SDS011;11275;52.488;13.462;2023-07-30T01:05:38;3.67;;;3.30;;
22211;SDS011;11275;52.488;13.462;2023-07-30T01:08:04;4.15;;;2.95;;
22211;SDS011;11275;52.488;13.462;2023-07-30T01:10:30;3.88;;;2.95;;
22211;SDS011;11275;52.488;13.462;2023-07-30T01:12:58;3.95;;;3.00;;
22211;SDS011;11275;52.488;13.462;2023-07-30T01:15:26;3.35;;;3.05;;
22211;SDS011;11275;52.488;13.462;2023-07-30T01:17:53;3.03;;;2.80;;
22211;SDS011;11275;52.488;13.462;2023-07-30T01:20:20;3.22;;;3.00;;
22211;SDS011;11275;52.488;13.462;2023-07-30T01:22:46;3.70;;;3.00;;
22211;SDS011;11275;52.488;13.462;2023-07-30T01:25:12;3.20;;;2.90;;
22211;SDS011;11275;52.488;13.462;2023-07-30T01:27:40;3.17;;;2.88;;
22211;SDS011;11275;52.488;13.462;2023-07-30T01:30:17;3.20;;;2.90;;
22211;SDS011;11275;52.488;13.462;2023-07-30T01:32:48;3.63;;;2.78;;
22211;SDS011;11275;52.488;13.462;2023-07-30T01:35:16;3.42;;;2.85;;
22211;SDS011;11275;52.488;13.462;2023-07-30T01:37:44;3.10;;;2.80;;
22211;SDS011;11275;52.488;13.462;2023-07-30T01:40:11;4.35;;;3.08;;
22211;SDS011;11275;52.488;13.462;2023-07-30T01:42:38;3.05;;;2.78;;
22211;SDS011;11275;52.488;13.462;2023-07-30T01:45:04;3.90;;;3.00;;
22211;SDS011;11275;52.488;13.462;2023-07-30T01:47:31;2.90;;;2.70;;
22211;SDS011;11275;52.488;13.462;2023-07-30T01:49:56;2.72;;;2.53;;
22211;SDS011;11275;52.488;13.462;2023-07-30T01:52:22;4.53;;;3.17;;
22211;SDS011;11275;52.488;13.462;2023-07-30T01:54:48;3.50;;;3.20;;
22211;SDS011;11275;52.488;13.462;2023-07-30T01:57:13;4.10;;;3.28;;
22211;SDS011;11275;52.488;13.462;2023-07-30T01:59:39;4.65;;;2.92;;
22211;SDS011;11275;52.488;13.462;2023-07-30T02:02:05;3.50;;;3.20;;
22211;SDS011;11275;52.488;13.462;2023-07-30T02:04:32;3.55;;;3.20;;
22211;SDS011;11275;52.488;13.462;2023-07-30T02:06:57;3.70;;;3.20;;
22211;SDS011;11275;52.488;13.462;2023-07-30T02:09:23;3.47;;;3.03;;
22211;SDS011;11275;52.488;13.462;2023-07-30T02:11:49;7.07;;;3.78;;
22211;SDS011;11275;52.488;13.462;2023-07-30T02:14:14;4.03;;;3.53;;
22211;SDS011;11275;52.488;13.462;2023-07-30T02:16:40;4.22;;;3.83;;
22211;SDS011;11275;52.488;13.462;2023-07-30T02:19:05;4.30;;;3.90;;
22211;SDS011;11275;52.488;13.462;2023-07-30T02:21:33;3.63;;;3.28;;
22211;SDS011;11275;52.488;13.462;2023-07-30T02:24:01;4.22;;;3.47;;
22211;SDS011;11275;52.488;13.462;2023-07-30T02:26:26;4.72;;;3.53;;
22211;SDS011;11275;52.488;13.462;2023-07-30T02:28:52;3.70;;;3.30;;
22211;SDS011;11275;52.488;13.462;2023-07-30T02:31:17;5.13;;;3.30;;
22211;SDS011;11275;52.488;13.462;2023-07-30T02:33:43;6.70;;;3.63;;
22211;SDS011;11275;52.488;13.462;2023-07-30T02:36:09;3.20;;;2.90;;
22211;SDS011;11275;52.488;13.462;2023-07-30T02:38:34;3.70;;;3.25;;
22211;SDS011;11275;52.488;13.462;2023-07-30T02:41:00;3.55;;;3.25;;
22211;SDS011;11275;52.488;13.462;2023-07-30T02:43:25;3.38;;;3.08;;
22211;SDS011;11275;52.488;13.462;2023-07-30T02:45:51;3.95;;;3.50;;
22211;SDS011;11275;52.488;13.462;2023-07-30T02:48:16;3.42;;;3.00;;
22211;SDS011;11275;52.488;13.462;2023-07-30T02:50:42;3.60;;;3.25;;
22211;SDS011;11275;52.488;13.462;2023-07-30T02:53:07;4.13;;;3.47;;
22211;SDS011;11275;52.488;13.462;2023-07-30T02:55:33;4.03;;;3.72;;
22211;SDS011;11275;52.488;13.462;2023-07-30T02:57:59;4.85;;;3.47;;
22211;SDS011;11275;52.488;13.462;2023-07-30T03:00:25;4.72;;;3.22;;
22211;SDS011;11275;52.488;13.462;2023-07-30T03:02:50;3.83;;;3.47;;
22211;SDS011;11275;52.488;13.462;2023-07-30T03:05:16;4.35;;;3.20;;
22211;SDS011;11275;52.488;13.462;2023-07-30T03:07:41;4.10;;;3.20;;
22211;SDS011;11275;52.488;13.462;2023-07-30T03:10:07;4.53;;;3.67;;
22211;SDS011;11275;52.488;13.462;2023-07-30T03:12:33;4.00;;;2.80;;
22211;SDS011;11275;52.488;13.462;2023-07-30T03:14:58;3.92;;;3.33;;
22211;SDS011;11275;52.488;13.462;2023-07-30T03:17:24;4.68;;;3.20;;
22211;SDS011;11275;52.488;13.462;2023-07-30T03:19:50;3.35;;;3.05;;
22211;SDS011;11275;52.488;13.462;2023-07-30T03:22:16;5.78;;;3.45;;
22211;SDS011;11275;52.488;13.462;2023-07-30T03:24:41;4.60;;;3.35;;
22211;SDS011;11275;52.488;13.462;2023-07-30T03:27:07;3.30;;;3.00;;
22211;SDS011;11275;52.488;13.462;2023-07-30T03:29:32;3.95;;;3.60;;
22211;SDS011;11275;52.488;13.462;2023-07-30T03:31:58;3.70;;;3.40;;
22211;SDS011;11275;52.488;13.462;2023-07-30T03:34:24;4.25;;;3.60;;
22211;SDS011;11275;52.488;13.462;2023-07-30T03:36:49;5.00;;;3.50;;
22211;SDS011;11275;52.488;13.462;2023-07-30T03:39:15;4.28;;;3.88;;
22211;SDS011;11275;52.488;13.462;2023-07-30T03:41:40;5.50;;;4.00;;
22211;SDS011;11275;52.488;13.462;2023-07-30T03:44:08;6.78;;;3.80;;
22211;SDS011;11275;52.488;13.462;2023-07-30T03:46:33;4.22;;;3.65;;
22211;SDS011;11275;52.488;13.462;2023-07-30T03:48:59;6.68;;;4.05;;
22211;SDS011;11275;52.488;13.462;2023-07-30T03:51:26;4.68;;;4.28;;
22211;SDS011;11275;52.488;13.462;2023-07-30T03:53:52;4.32;;;3.92;;
22211;SDS011;11275;52.488;13.462;2023-07-30T03:56:18;3.95;;;3.35;;
22211;SDS011;11275;52.488;13.462;2023-07-30T03:58:43;5.07;;;3.60;;
22211;SDS011;11275;52.488;13.462;2023-07-30T04:01:09;4.53;;;3.35;;
22211;SDS011;11275;52.488;13.462;2023-07-30T04:03:34;4.05;;;3.55;;
22211;SDS011;11275;52.488;13.462;2023-07-30T04:06:00;5.13;;;3.75;;
22211;SDS011;11275;52.488;13.462;2023-07-30T04:08:26;4.13;;;3.72;;
22211;SDS011;11275;52.488;13.462;2023-07-30T04:10:51;4.47;;;3.60;;
22211;SDS011;11275;52.488;13.462;2023-07-30T04:13:17;3.80;;;3.50;;
22211;SDS011;11275;52.488;13.462;2023-07-30T04:15:42;3.80;;;3.50;;
22211;SDS011;11275;52.488;13.462;2023-07-30T04:18:08;4.68;;;3.60;;
22211;SDS011;11275;52.488;13.462;2023-07-30T04:20:34;4.13;;;3.63;;
22211;SDS011;11275;52.488;13.462;2023-07-30T04:22:59;3.45;;;3.15;;
22211;SDS011;11275;52.488;13.462;2023-07-30T04:25:25;3.72;;;2.97;;
22211;SDS011;11275;52.488;13.462;2023-07-30T04:27:50;3.47;;;3.17;;
22211;SDS011;11275;52.488;13.462;2023-07-30T04:30:16;3.10;;;2.80;;
22211;SDS011;11275;52.488;13.462;2023-07-30T04:32:42;3.00;;;2.80;;
22211;SDS011;11275;52.488;13.462;2023-07-30T04:35:07;4.88;;;3.05;;
22211;SDS011;11275;52.488;13.462;2023-07-30T04:37:33;3.22;;;2.85;;
22211;SDS011;11275;52.488;13.462;2023-07-30T04:39:59;3.47;;;3.17;;
22211;SDS011;11275;52.488;13.462;2023-07-30T04:42:24;3.92;;;3.38;;
22211;SDS011;11275;52.488;13.462;2023-07-30T04:44:50;5.70;;;3.50;;
22211;SDS011;11275;52.488;13.462;2023-07-30T04:47:15;4.05;;;3.33;;
22211;SDS011;11275;52.488;13.462;2023-07-30T04:49:41;4.35;;;3.33;;
22211;SDS011;11275;52.488;13.462;2023-07-30T04:52:07;3.15;;;2.92;;
22211;SDS011;11275;52.488;13.462;2023-07-30T04:54:33;3.47;;;2.88;;
22211;SDS011;11275;52.488;13.462;2023-07-30T04:57:01;2.78;;;2.50;;
22211;SDS011;11275;52.488;13.462;2023-07-30T04:59:27;3.05;;;2.85;;
22211;SDS011;11275;52.488;13.462;2023-07-30T05:01:53;3.15;;;2.72;;
22211;SDS011;11275;52.488;13.462;2023-07-30T05:04:18;8.82;;;2.80;;
22211;SDS011;11275;52.488;13.462;2023-07-30T05:06:44;3.05;;;2.42;;
22211;SDS011;11275;52.488;13.462;2023-07-30T05:09:09;2.50;;;2.30;;
22211;SDS011;11275;52.488;13.462;2023-07-30T05:11:36;2.53;;;2.33;;
22211;SDS011;11275;52.488;13.462;2023-07-30T05:14:03;2.60;;;2.30;;
22211;SDS011;11275;52.488;13.462;2023-07-30T05:16:28;2.30;;;2.10;;
22211;SDS011;11275;52.488;13.462;2023-07-30T05:18:54;2.30;;;2.10;;
22211;SDS011;11275;52.488;13.462;2023-07-30T05:21:20;2.47;;;2.28;;
22211;SDS011;11275;52.488;13.462;2023-07-30T05:23:45;2.83;;;1.80;;
22211;SDS011;11275;52.488;13.462;2023-07-30T05:26:11;2.10;;;1.90;;
22211;SDS011;11275;52.488;13.462;2023-07-30T05:28:36;2.17;;;1.98;;
22211;SDS011;11275;52.488;13.462;2023-07-30T05:31:02;2.35;;;1.70;;
22211;SDS011;11275;52.488;13.462;2023-07-30T05:33:28;2.47;;;1.65;;
22211;SDS011;11275;52.488;13.462;2023-07-30T05:35:53;1.70;;;1.60;;
22211;SDS011;11275;52.488;13.462;2023-07-30T05:38:19;1.77;;;1.67;;
22211;SDS011;11275;52.488;13.462;2023-07-30T05:40:44;1.85;;;1.40;;
22211;SDS011;11275;52.488;13.462;2023-07-30T05:43:10;2.92;;;1.42;;
22211;SDS011;11275;52.488;13.462;2023-07-30T05:45:35;1.50;;;1.40;;
22211;SDS011;11275;52.488;13.462;2023-07-30T05:48:01;1.52;;;1.40;;
22211;SDS011;11275;52.488;13.462;2023-07-30T05:50:27;1.73;;;1.50;;
22211;SDS011;11275;52.488;13.462;2023-07-30T05:52:52;1.85;;;1.42;;
22211;SDS011;11275;52.488;13.462;2023-07-30T05:55:18;1.45;;;1.30;;
22211;SDS011;11275;52.488;13.462;2023-07-30T05:57:43;2.00;;;1.40;;
22211;SDS011;11275;52.488;13.462;2023-07-30T06:00:09;2.75;;;1.17;;
22211;SDS011;11275;52.488;13.462;2023-07-30T06:02:35;2.42;;;1.38;;
22211;SDS011;11275;52.488;13.462;2023-07-30T06:05:01;1.45;;;1.30;;
22211;SDS011;11275;52.488;13.462;2023-07-30T06:07:26;2.28;;;1.40;;
22211;SDS011;11275;52.488;13.462;2023-07-30T06:09:52;2.72;;;1.50;;
22211;SDS011;11275;52.488;13.462;2023-07-30T06:12:17;2.25;;;1.40;;
22211;SDS011;11275;52.488;13.462;2023-07-30T06:14:43;2.42;;;1.50;;
22211;SDS011;11275;52.488;13.462;2023-07-30T06:17:09;2.58;;;1.40;;
22211;SDS011;11275;52.488;13.462;2023-07-30T06:19:34;1.25;;;1.13;;
22211;SDS011;11275;52.488;13.462;2023-07-30T06:22:00;3.90;;;1.55;;
22211;SDS011;11275;52.488;13.462;2023-07-30T06:24:25;1.38;;;1.27;;
22211;SDS011;11275;52.488;13.462;2023-07-30T06:26:51;2.10;;;1.27;;
22211;SDS011;11275;52.488;13.462;2023-07-30T06:29:17;1.20;;;1.08;;
22211;SDS011;11275;52.488;13.462;2023-07-30T06:31:42;1.80;;;1.10;;
22211;SDS011;11275;52.488;13.462;2023-07-30T06:34:08;1.42;;;1.17;;
22211;SDS011;11275;52.488;13.462;2023-07-30T06:36:34;1.30;;;1.20;;
22211;SDS011;11275;52.488;13.462;2023-07-30T06:38:59;1.75;;;1.30;;
22211;SDS011;11275;52.488;13.462;2023-07-30T06:41:25;1.40;;;1.30;;
22211;SDS011;11275;52.488;13.462;2023-07-30T06:43:50;1.52;;;1.20;;
22211;SDS011;11275;52.488;13.462;2023-07-30T06:46:16;1.80;;;1.20;;
22211;SDS011;11275;52.488;13.462;2023-07-30T06:48:42;1.35;;;1.25;;
22211;SDS011;11275;52.488;13.462;2023-07-30T06:51:09;1.30;;;1.20;;
22211;SDS011;11275;52.488;13.462;2023-07-30T06:53:35;1.20;;;1.10;;
22211;SDS011;11275;52.488;13.462;2023-07-30T06:56:02;1.65;;;1.38;;
22211;SDS011;11275;52.488;13.462;2023-07-30T06:58:28;1.20;;;1.10;;
22211;SDS011;11275;52.488;13.462;2023-07-30T07:00:54;1.30;;;1.05;;
22211;SDS011;11275;52.488;13.462;2023-07-30T07:03:19;1.35;;;1.10;;
22211;SDS011;11275;52.488;13.462;2023-07-30T07:05:45;3.35;;;1.90;;
22211;SDS011;11275;52.488;13.462;2023-07-30T07:08:17;2.85;;;1.27;;
22211;SDS011;11275;52.488;13.462;2023-07-30T07:10:43;1.67;;;1.23;;
22211;SDS011;11275;52.488;13.462;2023-07-30T07:13:09;1.20;;;0.98;;
22211;SDS011;11275;52.488;13.462;2023-07-30T07:15:35;1.35;;;1.17;;
22211;SDS011;11275;52.488;13.462;2023-07-30T07:18:01;1.73;;;1.20;;
22211;SDS011;11275;52.488;13.462;2023-07-30T07:20:26;1.10;;;1.00;;
22211;SDS011;11275;52.488;13.462;2023-07-30T07:22:52;1.60;;;1.30;;
22211;SDS011;11275;52.488;13.462;2023-07-30T07:25:18;1.02;;;0.93;;
22211;SDS011;11275;52.488;13.462;2023-07-30T07:27:44;2.15;;;1.92;;
22211;SDS011;11275;52.488;13.462;2023-07-30T07:30:10;3.05;;;1.27;;
22211;SDS011;11275;52.488;13.462;2023-07-30T07:32:36;1.70;;;1.20;;
22211;SDS011;11275;52.488;13.462;2023-07-30T07:35:03;3.17;;;1.35;;
22211;SDS011;11275;52.488;13.462;2023-07-30T07:37:31;1.70;;;1.48;;
22211;SDS011;11275;52.488;13.462;2023-07-30T07:39:57;1.30;;;1.20;;
22211;SDS011;11275;52.488;13.462;2023-07-30T07:42:23;1.77;;;1.30;;
22211;SDS011;11275;52.488;13.462;2023-07-30T07:44:48;1.70;;;1.33;;
22211;SDS011;11275;52.488;13.462;2023-07-30T07:47:14;2.45;;;1.45;;
22211;SDS011;11275;52.488;13.462;2023-07-30T07:49:40;2.65;;;1.63;;
22211;SDS011;11275;52.488;13.462;2023-07-30T07:52:06;2.00;;;1.27;;
22211;SDS011;11275;52.488;13.462;2023-07-30T07:54:32;1.42;;;1.33;;
22211;SDS011;11275;52.488;13.462;2023-07-30T07:56:57;1.80;;;1.20;;
22211;SDS011;11275;52.488;13.462;2023-07-30T07:59:23;2.13;;;1.05;;
22211;SDS011;11275;52.488;13.462;2023-07-30T08:01:49;4.15;;;1.42;;
22211;SDS011;11275;52.488;13.462;2023-07-30T08:04:15;1.65;;;1.55;;
22211;SDS011;11275;52.488;13.462;2023-07-30T08:06:40;2.83;;;1.52;;
22211;SDS011;11275;52.488;13.462;2023-07-30T08:09:06;1.60;;;1.30;;
22211;SDS011;11275;52.488;13.462;2023-07-30T08:11:31;2.45;;;1.20;;
22211;SDS011;11275;52.488;13.462;2023-07-30T08:13:58;1.50;;;1.30;;
22211;SDS011;11275;52.488;13.462;2023-07-30T08:16:24;1.83;;;1.35;;
22211;SDS011;11275;52.488;13.462;2023-07-30T08:18:50;2.83;;;1.50;;
22211;SDS011;11275;52.488;13.462;2023-07-30T08:21:16;13.38;;;1.75;;
22211;SDS011;11275;52.488;13.462;2023-07-30T08:23:42;2.80;;;1.50;;
22211;SDS011;11275;52.488;13.462;2023-07-30T08:26:08;1.50;;;1.20;;
22211;SDS011;11275;52.488;13.462;2023-07-30T08:28:34;4.03;;;1.20;;
22211;SDS011;11275;52.488;13.462;2023-07-30T08:31:00;2.10;;;1.10;;
22211;SDS011;11275;52.488;13.462;2023-07-30T08:33:27;2.40;;;1.10;;
22211;SDS011;11275;52.488;13.462;2023-07-30T08:35:55;2.50;;;1.20;;
22211;SDS011;11275;52.488;13.462;2023-07-30T08:38:21;1.98;;;1.30;;
22211;SDS011;11275;52.488;13.462;2023-07-30T08:40:47;1.23;;;1.10;;
22211;SDS011;11275;52.488;13.462;2023-07-30T08:43:13;1.15;;;0.98;;
22211;SDS011;11275;52.488;13.462;2023-07-30T08:45:39;1.38;;;0.98;;
22211;SDS011;11275;52.488;13.462;2023-07-30T08:48:05;1.35;;;1.10;;
22211;SDS011;11275;52.488;13.462;2023-07-30T08:50:30;2.63;;;1.10;;
22211;SDS011;11275;52.488;13.462;2023-07-30T08:52:57;2.35;;;1.05;;
22211;SDS011;11275;52.488;13.462;2023-07-30T08:55:25;2.53;;;1.20;;
22211;SDS011;11275;52.488;13.462;2023-07-30T08:57:53;2.03;;;1.02;;
22211;SDS011;11275;52.488;13.462;2023-07-30T09:00:21;5.43;;;4.13;;
22211;SDS011;11275;52.488;13.462;2023-07-30T09:02:51;1.85;;;1.25;;
22211;SDS011;11275;52.488;13.462;2023-07-30T09:05:19;1.27;;;1.10;;
22211;SDS011;11275;52.488;13.462;2023-07-30T09:07:45;2.03;;;1.20;;
22211;SDS011;11275;52.488;13.462;2023-07-30T09:10:12;2.40;;;1.23;;
22211;SDS011;11275;52.488;13.462;2023-07-30T09:12:38;1.77;;;0.90;;
22211;SDS011;11275;52.488;13.462;2023-07-30T09:15:05;1.73;;;1.00;;
22211;SDS011;11275;52.488;13.462;2023-07-30T09:17:32;1.60;;;1.00;;
22211;SDS011;11275;52.488;13.462;2023-07-30T09:19:59;3.30;;;1.00;;
22211;SDS011;11275;52.488;13.462;2023-07-30T09:22:29;2.88;;;1.00;;
22211;SDS011;11275;52.488;13.462;2023-07-30T09:25:01;1.60;;;1.00;;
22211;SDS011;11275;52.488;13.462;2023-07-30T09:27:28;1.83;;;0.80;;
22211;SDS011;11275;52.488;13.462;2023-07-30T09:29:57;2.33;;;0.90;;
22211;SDS011;11275;52.488;13.462;2023-07-30T09:32:25;2.25;;;1.02;;
22211;SDS011;11275;52.488;13.462;2023-07-30T09:34:54;3.38;;;1.05;;
22211;SDS011;11275;52.488;13.462;2023-07-30T09:37:20;3.75;;;1.10;;
22211;SDS011;11275;52.488;13.462;2023-07-30T09:39:49;2.13;;;1.17;;
22211;SDS011;11275;52.488;13.462;2023-07-30T09:42:14;3.90;;;1.10;;
22211;SDS011;11275;52.488;13.462;2023-07-30T09:44:40;2.63;;;1.00;;
22211;SDS011;11275;52.488;13.462;2023-07-30T09:47:09;2.28;;;1.00;;
22211;SDS011;11275;52.488;13.462;2023-07-30T09:49:36;1.42;;;0.90;;
22211;SDS011;11275;52.488;13.462;2023-07-30T09:52:03;1.65;;;0.88;;
22211;SDS011;11275;52.488;13.462;2023-07-30T09:54:30;1.15;;;0.90;;
22211;SDS011;11275;52.488;13.462;2023-07-30T09:56:57;1.50;;;0.93;;
22211;SDS011;11275;52.488;13.462;2023-07-30T09:59:23;1.13;;;0.80;;
22211;SDS011;11275;52.488;13.462;2023-07-30T10:01:49;1.40;;;1.05;;
22211;SDS011;11275;52.488;13.462;2023-07-30T10:04:20;1.48;;;0.90;;
22211;SDS011;11275;52.488;13.462;2023-07-30T10:07:01;3.33;;;1.42;;
22211;SDS011;11275;52.488;13.462;2023-07-30T10:09:33;2.05;;;1.13;;
22211;SDS011;11275;52.488;13.462;2023-07-30T10:12:08;1.73;;;0.98;;
22211;SDS011;11275;52.488;13.462;2023-07-30T10:14:45;1.60;;;0.90;;
22211;SDS011;11275;52.488;13.462;2023-07-30T10:17:12;2.22;;;1.23;;
22211;SDS011;11275;52.488;13.462;2023-07-30T10:19:38;1.85;;;1.02;;
22211;SDS011;11275;52.488;13.462;2023-07-30T10:24:39;2.28;;;1.05;;
22211;SDS011;11275;52.488;13.462;2023-07-30T10:27:05;2.20;;;1.17;;
22211;SDS011;11275;52.488;13.462;2023-07-30T10:29:31;2.33;;;1.30;;
22211;SDS011;11275;52.488;13.462;2023-07-30T10:32:00;2.80;;;1.50;;
22211;SDS011;11275;52.488;13.462;2023-07-30T10:34:43;2.90;;;1.40;;
22211;SDS011;11275;52.488;13.462;2023-07-30T10:37:10;2.83;;;1.00;;
22211;SDS011;11275;52.488;13.462;2023-07-30T10:39:36;2.30;;;1.20;;
22211;SDS011;11275;52.488;13.462;2023-07-30T10:42:01;2.97;;;1.45;;
22211;SDS011;11275;52.488;13.462;2023-07-30T10:44:28;1.75;;;0.95;;
22211;SDS011;11275;52.488;13.462;2023-07-30T10:46:54;2.40;;;1.00;;
22211;SDS011;11275;52.488;13.462;2023-07-30T10:49:21;2.63;;;1.20;;
22211;SDS011;11275;52.488;13.462;2023-07-30T10:51:47;1.70;;;1.10;;
22211;SDS011;11275;52.488;13.462;2023-07-30T10:54:12;1.67;;;1.00;;
22211;SDS011;11275;52.488;13.462;2023-07-30T10:56:40;3.42;;;1.10;;
22211;SDS011;11275;52.488;13.462;2023-07-30T10:59:06;1.85;;;0.90;;
22211;SDS011;11275;52.488;13.462;2023-07-30T11:01:39;3.00;;;1.20;;
22211;SDS011;11275;52.488;13.462;2023-07-30T11:04:07;4.93;;;1.00;;
22211;SDS011;11275;52.488;13.462;2023-07-30T11:06:38;3.88;;;1.10;;
22211;SDS011;11275;52.488;13.462;2023-07-30T11:09:17;3.05;;;1.00;;
22211;SDS011;11275;52.488;13.462;2023-07-30T11:11:53;2.08;;;1.05;;
22211;SDS011;11275;52.488;13.462;2023-07-30T11:14:21;1.48;;;0.90;;
22211;SDS011;11275;52.488;13.462;2023-07-30T11:16:51;3.72;;;1.10;;
22211;SDS011;11275;52.488;13.462;2023-07-30T11:19:24;1.58;;;1.00;;
22211;SDS011;11275;52.488;13.462;2023-07-30T11:21:51;1.60;;;0.90;;
22211;SDS011;11275;52.488;13.462;2023-07-30T11:24:18;3.70;;;1.27;;
22211;SDS011;11275;52.488;13.462;2023-07-30T11:26:44;2.35;;;1.10;;
22211;SDS011;11275;52.488;13.462;2023-07-30T11:29:17;2.90;;;0.88;;
22211;SDS011;11275;52.488;13.462;2023-07-30T11:31:43;2.00;;;1.15;;
22211;SDS011;11275;52.488;13.462;2023-07-30T11:34:10;3.63;;;0.93;;
22211;SDS011;11275;52.488;13.462;2023-07-30T11:36:37;3.38;;;1.20;;
22211;SDS011;11275;52.488;13.462;2023-07-30T11:39:04;3.20;;;1.05;;
22211;SDS011;11275;52.488;13.462;2023-07-30T11:41:31;3.28;;;1.27;;
22211;SDS011;11275;52.488;13.462;2023-07-30T11:43:57;2.70;;;1.20;;
22211;SDS011;11275;52.488;13.462;2023-07-30T11:46:23;2.40;;;0.90;;
22211;SDS011;11275;52.488;13.462;2023-07-30T11:48:49;2.95;;;1.08;;
22211;SDS011;11275;52.488;13.462;2023-07-30T11:51:24;2.63;;;1.25;;
22211;SDS011;11275;52.488;13.462;2023-07-30T11:53:58;1.38;;;0.85;;
22211;SDS011;11275;52.488;13.462;2023-07-30T11:56:30;1.92;;;0.93;;
22211;SDS011;11275;52.488;13.462;2023-07-30T11:58:58;1.95;;;1.02;;
22211;SDS011;11275;52.488;13.462;2023-07-30T12:01:26;2.55;;;1.00;;
22211;SDS011;11275;52.488;13.462;2023-07-30T12:03:54;2.88;;;0.95;;
22211;SDS011;11275;52.488;13.462;2023-07-30T12:06:37;3.28;;;0.95;;
22211;SDS011;11275;52.488;13.462;2023-07-30T12:09:28;2.92;;;1.25;;
22211;SDS011;11275;52.488;13.462;2023-07-30T12:12:00;3.97;;;1.02;;
22211;SDS011;11275;52.488;13.462;2023-07-30T12:16:57;3.65;;;1.10;;
22211;SDS011;11275;52.488;13.462;2023-07-30T12:19:23;3.83;;;1.20;;
22211;SDS011;11275;52.488;13.462;2023-07-30T12:21:49;3.22;;;1.17;;
22211;SDS011;11275;52.488;13.462;2023-07-30T12:24:15;2.88;;;1.20;;
22211;SDS011;11275;52.488;13.462;2023-07-30T12:26:40;4.72;;;1.00;;
22211;SDS011;11275;52.488;13.462;2023-07-30T12:29:06;3.05;;;1.13;;
22211;SDS011;11275;52.488;13.462;2023-07-30T12:31:32;2.45;;;1.00;;
22211;SDS011;11275;52.488;13.462;2023-07-30T12:33:57;1.20;;;0.90;;
22211;SDS011;11275;52.488;13.462;2023-07-30T12:36:23;1.50;;;1.00;;
22211;SDS011;11275;52.488;13.462;2023-07-30T12:38:49;1.92;;;0.98;;
22211;SDS011;11275;52.488;13.462;2023-07-30T12:41:17;3.22;;;0.90;;
22211;SDS011;11275;52.488;13.462;2023-07-30T12:43:43;3.42;;;1.20;;
22211;SDS011;11275;52.488;13.462;2023-07-30T12:46:09;2.88;;;1.10;;
22211;SDS011;11275;52.488;13.462;2023-07-30T12:48:35;3.03;;;0.95;;
22211;SDS011;11275;52.488;13.462;2023-07-30T12:51:01;3.92;;;1.50;;
22211;SDS011;11275;52.488;13.462;2023-07-30T12:53:27;2.00;;;0.98;;
22211;SDS011;11275;52.488;13.462;2023-07-30T12:55:53;4.80;;;1.30;;
22211;SDS011;11275;52.488;13.462;2023-07-30T12:58:18;2.50;;;1.13;;
22211;SDS011;11275;52.488;13.462;2023-07-30T13:00:44;2.42;;;1.23;;
22211;SDS011;11275;52.488;13.462;2023-07-30T13:03:09;2.10;;;0.90;;
22211;SDS011;11275;52.488;13.462;2023-07-30T13:05:36;2.88;;;1.08;;
22211;SDS011;11275;52.488;13.462;2023-07-30T13:08:01;1.90;;;0.90;;
22211;SDS011;11275;52.488;13.462;2023-07-30T13:10:27;2.80;;;1.20;;
22211;SDS011;11275;52.488;13.462;2023-07-30T13:12:53;3.47;;;1.35;;
22211;SDS011;11275;52.488;13.462;2023-07-30T13:15:19;2.22;;;1.10;;
22211;SDS011;11275;52.488;13.462;2023-07-30T13:17:44;2.50;;;1.20;;
22211;SDS011;11275;52.488;13.462;2023-07-30T13:20:10;3.53;;;1.17;;
22211;SDS011;11275;52.488;13.462;2023-07-30T13:22:36;1.88;;;1.20;;
22211;SDS011;11275;52.488;13.462;2023-07-30T13:25:01;1.60;;;0.90;;
22211;SDS011;11275;52.488;13.462;2023-07-30T13:27:28;2.40;;;1.33;;
22211;SDS011;11275;52.488;13.462;2023-07-30T13:29:53;2.42;;;1.40;;
22211;SDS011;11275;52.488;13.462;2023-07-30T13:32:19;5.32;;;1.27;;
22211;SDS011;11275;52.488;13.462;2023-07-30T13:34:45;2.90;;;1.50;;
22211;SDS011;11275;52.488;13.462;2023-07-30T13:37:10;2.65;;;1.20;;
22211;SDS011;11275;52.488;13.462;2023-07-30T13:39:36;3.33;;;1.23;;
22211;SDS011;11275;52.488;13.462;2023-07-30T13:42:01;1.73;;;0.98;;
22211;SDS011;11275;52.488;13.462;2023-07-30T13:44:27;3.30;;;1.60;;
22211;SDS011;11275;52.488;13.462;2023-07-30T13:46:53;3.65;;;1.95;;
22211;SDS011;11275;52.488;13.462;2023-07-30T13:49:19;3.03;;;1.27;;
22211;SDS011;11275;52.488;13.462;2023-07-30T13:51:44;2.42;;;1.40;;
22211;SDS011;11275;52.488;13.462;2023-07-30T13:54:10;2.95;;;1.50;;
22211;SDS011;11275;52.488;13.462;2023-07-30T13:56:36;2.08;;;1.08;;
22211;SDS011;11275;52.488;13.462;2023-07-30T13:59:03;2.67;;;1.05;;
22211;SDS011;11275;52.488;13.462;2023-07-30T14:01:29;2.00;;;1.17;;
22211;SDS011;11275;52.488;13.462;2023-07-30T14:03:55;2.35;;;0.90;;
22211;SDS011;11275;52.488;13.462;2023-07-30T14:06:20;2.38;;;1.10;;
22211;SDS011;11275;52.488;13.462;2023-07-30T14:08:46;1.63;;;1.02;;
22211;SDS011;11275;52.488;13.462;2023-07-30T14:11:12;1.38;;;0.90;;
22211;SDS011;11275;52.488;13.462;2023-07-30T14:13:40;1.65;;;0.90;;
22211;SDS011;11275;52.488;13.462;2023-07-30T14:16:06;2.78;;;1.00;;
22211;SDS011;11275;52.488;13.462;2023-07-30T14:18:31;1.20;;;0.60;;
22211;SDS011;11275;52.488;13.462;2023-07-30T14:20:58;1.77;;;1.00;;
22211;SDS011;11275;52.488;13.462;2023-07-30T14:23:23;2.33;;;1.10;;
22211;SDS011;11275;52.488;13.462;2023-07-30T14:25:49;1.70;;;0.80;;
22211;SDS011;11275;52.488;13.462;2023-07-30T14:28:15;1.40;;;0.75;;
22211;SDS011;11275;52.488;13.462;2023-07-30T14:30:40;5.20;;;1.10;;
22211;SDS011;11275;52.488;13.462;2023-07-30T14:33:09;2.03;;;0.75;;
22211;SDS011;11275;52.488;13.462;2023-07-30T14:35:36;1.33;;;0.77;;